Tutonchany, Russia
Current Conditions -  °F | °C
As of 7:30 AM on Sunday 26 Oct 2014 (Local Time) from UNKL Reporting Station
Overcast Overcast  
Wind Chill: 28°   Ceiling: 1600
Heat Index: 34°   Visibility: 6mi
Dew Point: 28°   Wind: 7mph
Humidity: 81%   Direction: 300°WNW
Pressure: 29.91"   Gusts: NA
Location:  64.22°N, 93.79°E
Report Text: UNKL 260030Z 30003MPS 9999 SCT011 OVC016CB 01/M02 Q1013 NOSIGRMK QFE734 29////50
Loading
Personal Weather Stations






























Interactive Weather Map
Tropical Storm Tracking
New forecast layout! Learn more

10-Day Weather Forecast

Advertisements
Track Severe Weather on mobile